createdAt,value
2018-01-26T00:00:06.168Z,6.30
2018-01-26T00:02:34.511Z,5.93
2018-01-26T00:05:02.841Z,6.43
2018-01-26T00:07:31.172Z,7.30
2018-01-26T00:09:59.520Z,5.80
2018-01-26T00:12:27.824Z,6.40
2018-01-26T00:14:56.136Z,6.20
2018-01-26T00:17:24.703Z,6.10
2018-01-26T00:19:53.037Z,6.00
2018-01-26T00:22:21.338Z,7.70
2018-01-26T00:24:49.708Z,5.47
2018-01-26T00:27:18.044Z,5.60
2018-01-26T00:29:46.341Z,5.90
2018-01-26T00:32:14.699Z,6.03
2018-01-26T00:34:43.015Z,5.77
2018-01-26T00:37:11.351Z,5.97
2018-01-26T00:39:39.800Z,5.23
2018-01-26T00:42:08.146Z,5.53
2018-01-26T00:44:37.273Z,5.90
2018-01-26T00:47:05.620Z,6.20
2018-01-26T00:49:33.912Z,6.10
2018-01-26T00:52:02.238Z,5.90
2018-01-26T00:54:30.612Z,5.63
2018-01-26T00:56:59.691Z,5.50
2018-01-26T00:59:28.064Z,5.43
2018-01-26T01:01:56.602Z,5.90
2018-01-26T01:04:24.928Z,5.57
2018-01-26T01:06:54.016Z,5.33
2018-01-26T01:09:22.358Z,5.90
2018-01-26T01:11:50.671Z,5.50
2018-01-26T01:14:18.972Z,5.20
2018-01-26T01:16:48.131Z,5.87
2018-01-26T01:19:16.454Z,5.63
2018-01-26T01:21:45.564Z,5.00
2018-01-26T01:24:14.184Z,5.40
2018-01-26T01:26:42.513Z,5.07
2018-01-26T01:29:11.615Z,6.10
2018-01-26T01:31:40.745Z,6.20
2018-01-26T01:34:09.063Z,5.40
2018-01-26T01:36:37.405Z,5.77
2018-01-26T01:39:05.774Z,5.33
2018-01-26T01:41:34.067Z,5.00
2018-01-26T01:44:02.393Z,5.90
2018-01-26T01:46:31.285Z,5.73
2018-01-26T01:49:17.688Z,5.93
2018-01-26T01:51:46.816Z,5.30
2018-01-26T01:54:15.175Z,5.40
2018-01-26T01:56:43.519Z,5.83
2018-01-26T01:59:11.866Z,5.47
2018-01-26T02:01:40.160Z,5.87
2018-01-26T02:04:08.478Z,6.00
2018-01-26T02:06:37.827Z,6.70
2018-01-26T02:09:06.184Z,6.60
2018-01-26T02:11:34.524Z,5.70
2018-01-26T02:14:02.901Z,5.70
2018-01-26T02:16:31.218Z,6.07
2018-01-26T02:18:59.517Z,6.13
2018-01-26T02:21:27.908Z,6.90
2018-01-26T02:23:56.268Z,6.43
2018-01-26T02:26:24.593Z,6.60
2018-01-26T02:28:53.512Z,7.17
2018-01-26T02:31:22.611Z,7.10
2018-01-26T02:33:50.924Z,7.30
2018-01-26T02:36:19.350Z,6.13
2018-01-26T02:38:47.842Z,7.10
2018-01-26T02:41:16.158Z,6.53
2018-01-26T02:43:44.540Z,7.53
2018-01-26T02:46:12.877Z,6.37
2018-01-26T02:48:41.199Z,6.87
2018-01-26T02:51:10.531Z,6.17
2018-01-26T02:53:38.833Z,6.80
2018-01-26T02:56:07.154Z,7.00
2018-01-26T02:58:35.486Z,7.27
2018-01-26T03:01:03.796Z,7.00
2018-01-26T03:03:32.108Z,6.53
2018-01-26T03:06:00.466Z,6.13
2018-01-26T03:08:28.832Z,6.63
2018-01-26T03:10:57.168Z,7.10
2018-01-26T03:13:25.893Z,5.90
2018-01-26T03:15:54.250Z,5.87
2018-01-26T03:18:22.564Z,6.50
2018-01-26T03:20:50.900Z,6.57
2018-01-26T03:23:19.992Z,6.40
2018-01-26T03:25:49.099Z,6.20
2018-01-26T03:28:18.199Z,7.13
2018-01-26T03:30:46.480Z,6.63
2018-01-26T03:33:14.799Z,6.97
2018-01-26T03:35:43.313Z,5.93
2018-01-26T03:38:11.632Z,7.20
2018-01-26T03:40:39.992Z,6.60
2018-01-26T03:43:09.088Z,6.30
2018-01-26T03:45:38.175Z,7.33
2018-01-26T03:48:07.271Z,6.60
2018-01-26T03:50:36.377Z,6.93
2018-01-26T03:53:05.462Z,7.63
2018-01-26T03:55:34.568Z,7.03
2018-01-26T03:58:04.173Z,8.30
2018-01-26T04:00:33.286Z,7.67
2018-01-26T04:03:01.625Z,8.83
2018-01-26T04:05:29.937Z,7.20
2018-01-26T04:07:58.245Z,7.33
2018-01-26T04:10:26.569Z,7.60
2018-01-26T04:12:54.957Z,7.90
2018-01-26T04:15:24.090Z,7.83
2018-01-26T04:17:52.418Z,7.50
2018-01-26T04:20:20.987Z,7.60
2018-01-26T04:22:49.292Z,7.43
2018-01-26T04:25:18.375Z,8.03
2018-01-26T04:27:46.696Z,8.10
2018-01-26T04:30:15.026Z,9.20
2018-01-26T04:32:43.363Z,8.50
2018-01-26T04:35:11.740Z,8.73
2018-01-26T04:37:40.072Z,7.90
2018-01-26T04:40:08.357Z,8.63
2018-01-26T04:42:37.251Z,8.30
2018-01-26T04:45:05.540Z,9.10
2018-01-26T04:47:33.871Z,8.83
2018-01-26T04:50:02.976Z,9.37
2018-01-26T04:52:31.312Z,8.10
2018-01-26T04:54:59.621Z,8.60
2018-01-26T04:57:28.222Z,9.10
2018-01-26T04:59:56.590Z,9.20
2018-01-26T05:02:24.963Z,10.03
2018-01-26T05:04:53.780Z,9.33
2018-01-26T05:07:22.174Z,10.33
2018-01-26T05:09:50.515Z,9.70
2018-01-26T05:12:18.861Z,10.10
2018-01-26T05:14:47.182Z,10.80
2018-01-26T05:17:15.526Z,9.83
2018-01-26T05:19:43.943Z,10.20
2018-01-26T05:22:12.380Z,11.13
2018-01-26T05:24:40.742Z,11.83
2018-01-26T05:27:09.487Z,10.83
2018-01-26T05:29:37.870Z,12.00
2018-01-26T05:32:06.238Z,11.80
2018-01-26T05:34:34.730Z,11.17
2018-01-26T05:37:03.199Z,12.10
2018-01-26T05:39:31.581Z,13.03
2018-01-26T05:41:59.939Z,12.37
2018-01-26T05:44:28.260Z,13.00
2018-01-26T05:46:56.604Z,13.00
2018-01-26T05:49:26.273Z,12.87
2018-01-26T05:51:54.605Z,13.70
2018-01-26T05:54:22.923Z,14.40
2018-01-26T05:56:52.024Z,13.90
2018-01-26T05:59:21.123Z,15.30
2018-01-26T06:01:49.601Z,14.47
2018-01-26T06:04:17.934Z,14.70
2018-01-26T06:06:46.260Z,14.60
2018-01-26T06:09:14.579Z,16.20
2018-01-26T06:11:43.445Z,14.97
2018-01-26T06:14:11.841Z,16.80
2018-01-26T06:16:40.156Z,22.93
2018-01-26T06:19:08.499Z,24.60
2018-01-26T06:21:36.840Z,25.70
2018-01-26T06:24:05.922Z,26.23
2018-01-26T06:26:35.027Z,24.13
2018-01-26T06:29:04.104Z,22.60
2018-01-26T06:31:32.401Z,20.03
2018-01-26T06:34:01.989Z,19.30
2018-01-26T06:36:30.337Z,18.93
2018-01-26T06:38:58.674Z,17.97
2018-01-26T06:41:27.000Z,17.43
2018-01-26T06:43:55.300Z,19.60
2018-01-26T06:46:23.660Z,18.43
2018-01-26T06:48:52.014Z,19.53
2018-01-26T06:51:20.367Z,19.67
2018-01-26T06:53:49.492Z,19.87
2018-01-26T06:56:18.304Z,19.47
2018-01-26T06:58:46.607Z,20.20
2018-01-26T07:01:14.942Z,17.77
2018-01-26T07:03:44.236Z,20.13
2018-01-26T07:06:12.557Z,19.20
2018-01-26T07:08:40.887Z,20.70
2018-01-26T07:11:09.223Z,20.40
2018-01-26T07:13:37.557Z,19.23
2018-01-26T07:16:05.879Z,21.10
2018-01-26T07:18:34.432Z,20.20
2018-01-26T07:21:02.791Z,21.50
2018-01-26T07:23:31.151Z,22.47
2018-01-26T07:25:59.522Z,23.40
2018-01-26T07:28:27.842Z,21.43
2018-01-26T07:30:56.937Z,21.60
2018-01-26T07:33:25.271Z,22.83
2018-01-26T07:35:53.681Z,22.10
2018-01-26T07:38:22.000Z,22.70
2018-01-26T07:40:50.393Z,21.90
2018-01-26T07:43:19.480Z,21.43
2018-01-26T07:45:48.600Z,21.37
2018-01-26T07:48:16.967Z,21.10
2018-01-26T07:50:46.068Z,19.87
2018-01-26T07:53:15.162Z,21.03
2018-01-26T07:55:44.347Z,20.83
2018-01-26T07:58:13.431Z,20.97
2018-01-26T08:00:41.800Z,21.77
2018-01-26T08:03:10.892Z,20.40
2018-01-26T08:05:40.030Z,22.60
2018-01-26T08:08:09.126Z,21.57
2018-01-26T08:10:38.255Z,20.63
2018-01-26T08:13:07.034Z,21.30
2018-01-26T08:15:35.345Z,22.20
2018-01-26T08:18:03.707Z,20.80
2018-01-26T08:20:32.075Z,21.70
2018-01-26T08:23:00.391Z,23.70
2018-01-26T08:25:29.122Z,21.70
2018-01-26T08:27:58.207Z,22.30
2018-01-26T08:30:27.317Z,20.00
2018-01-26T08:32:55.644Z,24.07
2018-01-26T08:35:23.959Z,23.73
2018-01-26T08:37:52.269Z,23.10
2018-01-26T08:40:20.606Z,23.33
2018-01-26T08:42:48.927Z,23.73
2018-01-26T08:45:17.275Z,24.40
2018-01-26T08:47:45.903Z,24.70
2018-01-26T08:50:14.228Z,26.37
2018-01-26T08:52:43.341Z,24.27
2018-01-26T08:58:17.560Z,25.90
2018-01-26T09:00:45.908Z,26.40
2018-01-26T09:03:14.260Z,24.67
2018-01-26T09:05:42.591Z,26.30
2018-01-26T09:08:11.499Z,25.63
2018-01-26T09:10:40.575Z,26.50
2018-01-26T09:13:09.133Z,25.40
2018-01-26T09:15:38.368Z,26.00
2018-01-26T09:18:07.456Z,25.80
2018-01-26T09:20:35.807Z,26.40
2018-01-26T09:23:05.242Z,27.43
2018-01-26T09:25:33.581Z,28.90
2018-01-26T09:28:02.699Z,29.83
2018-01-26T09:30:31.954Z,29.20
2018-01-26T09:33:00.264Z,31.57
2018-01-26T09:35:29.359Z,34.23
2018-01-26T09:37:57.735Z,36.10
2018-01-26T09:40:26.080Z,35.03
2018-01-26T09:42:54.460Z,37.33
2018-01-26T09:45:22.859Z,38.97
2018-01-26T09:47:51.173Z,37.03
2018-01-26T09:50:19.529Z,36.90
2018-01-26T09:52:48.096Z,38.83
2018-01-26T09:55:16.518Z,38.47
2018-01-26T09:57:44.865Z,39.70
2018-01-26T10:00:13.275Z,41.50
2018-01-26T10:02:41.612Z,42.33
2018-01-26T10:05:09.948Z,43.03
2018-01-26T10:07:39.084Z,43.70
2018-01-26T10:10:08.484Z,44.13
2018-01-26T10:12:36.814Z,42.97
2018-01-26T10:15:05.602Z,43.93
2018-01-26T10:17:33.944Z,43.20
2018-01-26T10:20:02.259Z,43.53
2018-01-26T10:22:30.636Z,43.47
2018-01-26T10:24:58.971Z,43.37
2018-01-26T10:27:27.337Z,42.67
2018-01-26T10:29:55.704Z,43.10
2018-01-26T10:32:24.013Z,42.17
2018-01-26T10:34:52.344Z,42.77
2018-01-26T10:37:21.670Z,42.60
2018-01-26T10:39:50.053Z,41.47
2018-01-26T10:42:18.391Z,41.27
2018-01-26T10:44:46.725Z,40.60
2018-01-26T10:47:15.075Z,40.17
2018-01-26T10:49:43.385Z,43.03
2018-01-26T10:52:11.738Z,40.00
2018-01-26T10:54:40.094Z,42.67
2018-01-26T10:57:08.443Z,39.80
2018-01-26T10:59:37.146Z,40.77
2018-01-26T11:02:05.513Z,40.20
2018-01-26T11:04:33.895Z,42.07
2018-01-26T11:07:02.263Z,39.37
2018-01-26T11:09:30.669Z,42.67
2018-01-26T11:11:59.033Z,40.23
2018-01-26T11:14:27.417Z,40.00
2018-01-26T11:16:56.151Z,40.77
2018-01-26T11:19:24.497Z,41.13
2018-01-26T11:21:53.225Z,40.30
2018-01-26T11:24:21.555Z,42.83
2018-01-26T11:26:49.912Z,41.77
2018-01-26T11:29:18.394Z,39.23
2018-01-26T11:31:46.720Z,38.00
2018-01-26T11:34:15.818Z,39.77
2018-01-26T11:36:44.930Z,39.87
2018-01-26T11:39:13.268Z,38.73
2018-01-26T11:41:41.603Z,39.30
2018-01-26T11:44:10.376Z,39.10
2018-01-26T11:46:38.763Z,37.33
2018-01-26T11:49:07.090Z,35.93
2018-01-26T11:51:35.465Z,37.20
2018-01-26T11:54:03.804Z,39.93
2018-01-26T11:56:32.125Z,38.10
2018-01-26T11:59:00.480Z,38.87
2018-01-26T12:01:29.584Z,39.20
2018-01-26T12:03:58.707Z,39.33
2018-01-26T12:06:27.976Z,38.30
2018-01-26T12:08:56.324Z,43.33
2018-01-26T12:11:24.629Z,36.90
2018-01-26T12:13:53.022Z,40.10
2018-01-26T12:16:21.353Z,37.60
2018-01-26T12:18:49.671Z,38.33
2018-01-26T12:21:18.111Z,38.73
2018-01-26T12:23:46.458Z,38.87
2018-01-26T12:26:14.776Z,38.60
2018-01-26T12:28:43.353Z,39.67
2018-01-26T12:31:11.707Z,39.80
2018-01-26T12:33:40.012Z,39.67
2018-01-26T12:36:08.397Z,38.17
2018-01-26T12:38:36.719Z,36.77
2018-01-26T12:41:05.046Z,36.63
2018-01-26T12:43:33.445Z,35.80
2018-01-26T12:46:01.815Z,36.33
2018-01-26T12:48:30.159Z,34.47
2018-01-26T12:50:59.757Z,36.40
2018-01-26T12:53:28.116Z,36.70
2018-01-26T12:55:56.456Z,36.70
2018-01-26T12:58:24.839Z,37.47
2018-01-26T13:00:53.169Z,35.67
2018-01-26T13:03:21.503Z,36.90
2018-01-26T13:05:49.852Z,35.20
2018-01-26T13:08:18.203Z,35.80
2018-01-26T13:10:46.522Z,34.37
2018-01-26T13:13:15.272Z,35.30
2018-01-26T13:15:43.628Z,35.00
2018-01-26T13:18:11.951Z,33.47
2018-01-26T13:20:40.327Z,34.63
2018-01-26T13:23:08.663Z,33.47
2018-01-26T13:25:37.010Z,31.87
2018-01-26T13:28:05.400Z,32.00
2018-01-26T13:30:33.772Z,35.53
2018-01-26T13:33:02.093Z,33.90
2018-01-26T13:35:30.523Z,34.97
2018-01-26T13:37:58.833Z,37.40
2018-01-26T13:40:27.169Z,35.70
2018-01-26T13:42:55.537Z,33.47
2018-01-26T13:45:23.859Z,36.43
2018-01-26T13:47:52.197Z,38.17
2018-01-26T13:50:20.543Z,36.40
2018-01-26T13:52:48.879Z,37.10
2018-01-26T13:55:17.224Z,36.17
2018-01-26T13:57:46.008Z,35.87
2018-01-26T14:00:15.104Z,37.07
2018-01-26T14:02:43.482Z,37.87
2018-01-26T14:05:12.634Z,35.00
2018-01-26T14:07:40.935Z,36.00
2018-01-26T14:10:09.305Z,34.73
2018-01-26T14:12:37.628Z,36.10
2018-01-26T14:15:05.950Z,32.77
2018-01-26T14:17:34.266Z,31.73
2018-01-26T14:20:02.932Z,36.70
2018-01-26T14:22:31.257Z,38.70
2018-01-26T14:25:00.339Z,34.43
2018-01-26T14:27:29.471Z,31.70
2018-01-26T14:29:57.797Z,31.23
2018-01-26T14:32:26.935Z,29.80
2018-01-26T14:34:55.286Z,29.67
2018-01-26T14:37:24.435Z,28.17
2018-01-26T14:39:52.735Z,26.93
2018-01-26T14:42:21.403Z,27.47
2018-01-26T14:44:49.731Z,27.97
2018-01-26T14:47:18.083Z,30.67
2018-01-26T14:49:46.443Z,30.93
2018-01-26T14:52:14.885Z,27.27
2018-01-26T14:54:43.330Z,30.87
2018-01-26T14:57:11.689Z,29.60
2018-01-26T14:59:40.015Z,27.40
2018-01-26T15:02:08.394Z,29.80
2018-01-26T15:04:37.164Z,29.10
2018-01-26T15:07:06.258Z,29.27
2018-01-26T15:09:34.672Z,29.87
2018-01-26T15:12:03.021Z,29.37
2018-01-26T15:14:31.374Z,28.70
2018-01-26T15:16:59.752Z,30.87
2018-01-26T15:19:28.128Z,30.10
2018-01-26T15:21:56.467Z,31.83
2018-01-26T15:24:24.770Z,29.53
2018-01-26T15:26:53.337Z,30.50
2018-01-26T15:29:21.689Z,29.43
2018-01-26T15:31:50.794Z,30.03
2018-01-26T15:34:19.138Z,28.70
2018-01-26T15:36:47.497Z,29.60
2018-01-26T15:39:15.844Z,30.23
2018-01-26T15:41:44.457Z,31.07
2018-01-26T15:44:12.898Z,30.83
2018-01-26T15:46:41.218Z,29.40
2018-01-26T15:49:09.651Z,29.43
2018-01-26T15:51:37.983Z,28.43
2018-01-26T15:54:06.324Z,29.67
2018-01-26T15:56:34.694Z,30.20
2018-01-26T15:59:03.036Z,30.37
2018-01-26T16:01:31.359Z,30.50
2018-01-26T16:03:59.718Z,30.53
2018-01-26T16:06:28.035Z,32.63
2018-01-26T16:08:56.331Z,30.53
2018-01-26T16:11:25.189Z,32.10
2018-01-26T16:13:53.564Z,32.57
2018-01-26T16:16:21.869Z,32.90
2018-01-26T16:18:50.624Z,33.37
2018-01-26T16:21:18.954Z,33.23
2018-01-26T16:23:47.277Z,31.93
2018-01-26T16:26:15.674Z,32.40
2018-01-26T16:28:44.017Z,33.27
2018-01-26T16:31:12.365Z,32.97
2018-01-26T16:33:41.091Z,30.43
2018-01-26T16:36:09.405Z,32.60
2018-01-26T16:38:37.698Z,31.80
2018-01-26T16:41:06.028Z,31.77
2018-01-26T16:43:34.348Z,32.00
2018-01-26T16:46:02.672Z,31.80
2018-01-26T16:48:31.011Z,32.30
2018-01-26T16:50:59.470Z,31.80
2018-01-26T16:53:27.783Z,33.20
2018-01-26T16:55:57.041Z,34.70
2018-01-26T16:58:25.341Z,29.07
2018-01-26T17:00:53.673Z,32.37
2018-01-26T17:03:22.056Z,31.73
2018-01-26T17:05:50.399Z,32.90
2018-01-26T17:08:18.707Z,33.20
2018-01-26T17:10:47.798Z,30.97
2018-01-26T17:13:16.922Z,32.53
2018-01-26T17:15:45.224Z,30.43
2018-01-26T17:18:13.852Z,32.13
2018-01-26T17:20:42.979Z,31.57
2018-01-26T17:23:11.270Z,30.80
2018-01-26T17:25:39.586Z,29.77
2018-01-26T17:28:08.125Z,29.40
2018-01-26T17:30:36.464Z,30.77
2018-01-26T17:33:05.839Z,28.57
2018-01-26T17:35:34.168Z,30.67
2018-01-26T17:38:02.484Z,28.13
2018-01-26T17:40:30.990Z,29.67
2018-01-26T17:42:59.396Z,28.20
2018-01-26T17:45:28.494Z,28.70
2018-01-26T17:47:56.849Z,26.23
2018-01-26T17:50:25.187Z,30.10
2018-01-26T17:52:53.555Z,27.47
2018-01-26T17:55:21.918Z,30.90
2018-01-26T17:57:50.233Z,30.93
2018-01-26T18:00:18.564Z,28.43
2018-01-26T18:02:47.108Z,31.57
2018-01-26T18:05:15.444Z,30.50
2018-01-26T18:07:43.787Z,30.83
2018-01-26T18:10:12.462Z,32.10
2018-01-26T18:12:40.794Z,31.67
2018-01-26T18:15:09.085Z,31.40
2018-01-26T18:17:37.485Z,32.27
2018-01-26T18:20:05.818Z,32.07
2018-01-26T18:22:34.115Z,32.87
2018-01-26T18:25:02.598Z,32.40
2018-01-26T18:27:30.924Z,33.20
2018-01-26T18:30:00.043Z,33.23
2018-01-26T18:32:28.388Z,32.73
2018-01-26T18:34:56.690Z,33.50
2018-01-26T18:37:25.942Z,34.70
2018-01-26T18:39:54.303Z,33.43
2018-01-26T18:42:22.659Z,34.00
2018-01-26T18:44:51.024Z,33.47
2018-01-26T18:47:20.844Z,33.97
2018-01-26T18:49:49.929Z,33.90
2018-01-26T18:52:19.029Z,35.80
2018-01-26T18:54:48.133Z,33.03
2018-01-26T18:57:16.448Z,36.40
2018-01-26T18:59:44.782Z,33.43
2018-01-26T19:02:13.874Z,34.90
2018-01-26T19:04:42.976Z,36.00
2018-01-26T19:07:11.286Z,36.40
2018-01-26T19:09:39.704Z,34.97
2018-01-26T19:12:08.044Z,35.53
2018-01-26T19:14:36.357Z,37.43
2018-01-26T19:17:04.701Z,34.80
2018-01-26T19:19:33.032Z,35.30
2018-01-26T19:22:01.367Z,35.80
2018-01-26T19:24:30.206Z,36.60
2018-01-26T19:26:58.511Z,36.73
2018-01-26T19:29:26.864Z,36.10
2018-01-26T19:31:56.038Z,37.83
2018-01-26T19:34:24.440Z,40.60
2018-01-26T19:36:53.704Z,38.00
2018-01-26T19:39:22.088Z,38.03
2018-01-26T19:41:50.441Z,39.97
2018-01-26T19:44:19.668Z,40.00
2018-01-26T19:46:48.060Z,39.23
2018-01-26T19:49:16.430Z,39.10
2018-01-26T19:51:44.790Z,39.07
2018-01-26T19:54:13.360Z,42.50
2018-01-26T19:56:41.721Z,41.00
2018-01-26T19:59:10.066Z,40.77
2018-01-26T20:01:39.484Z,41.30
2018-01-26T20:04:07.833Z,38.80
2018-01-26T20:06:59.436Z,40.93
2018-01-26T20:09:27.780Z,40.57
2018-01-26T20:12:02.720Z,40.10
2018-01-26T20:14:31.084Z,39.43
2018-01-26T20:17:00.245Z,41.50
2018-01-26T20:19:28.622Z,40.13
2018-01-26T20:21:56.940Z,43.10
2018-01-26T20:24:26.068Z,40.50
2018-01-26T20:26:55.172Z,42.67
2018-01-26T20:29:23.502Z,41.80
2018-01-26T20:31:51.852Z,37.70
2018-01-26T20:34:20.301Z,39.00
2018-01-26T20:36:48.647Z,39.40
2018-01-26T20:39:16.966Z,38.47
2018-01-26T20:41:45.312Z,38.57
2018-01-26T20:44:14.425Z,38.47
2018-01-26T20:46:42.810Z,40.77
2018-01-26T20:49:11.166Z,39.53
2018-01-26T20:51:39.506Z,38.77
2018-01-26T20:54:07.869Z,41.90
2018-01-26T20:56:36.612Z,38.67
2018-01-26T20:59:04.922Z,41.00
2018-01-26T21:01:34.001Z,37.77
2018-01-26T21:04:02.424Z,40.17
2018-01-26T21:06:30.794Z,40.80
2018-01-26T21:08:59.176Z,36.63
2018-01-26T21:11:27.567Z,37.50
2018-01-26T21:13:55.944Z,39.23
2018-01-26T21:16:24.249Z,37.77
2018-01-26T21:18:53.473Z,35.27
2018-01-26T21:21:21.825Z,38.00
2018-01-26T21:23:50.180Z,35.47
2018-01-26T21:26:18.532Z,37.50
2018-01-26T21:28:46.899Z,34.47
2018-01-26T21:31:15.206Z,37.00
2018-01-26T21:33:43.980Z,34.20
2018-01-26T21:36:12.669Z,34.53
2018-01-26T21:38:41.076Z,35.03
2018-01-26T21:41:09.959Z,34.50
2018-01-26T21:43:38.313Z,35.17
2018-01-26T21:46:06.616Z,34.20
2018-01-26T21:48:34.982Z,32.53
2018-01-26T21:51:03.347Z,34.50
2018-01-26T21:53:31.679Z,33.60
2018-01-26T21:56:00.876Z,30.90
2018-01-26T21:58:29.990Z,31.70
2018-01-26T22:00:59.121Z,33.63
2018-01-26T22:03:27.546Z,33.03
2018-01-26T22:05:55.849Z,32.10
2018-01-26T22:08:24.184Z,30.20
2018-01-26T22:10:52.544Z,30.90
2018-01-26T22:13:20.912Z,31.60
2018-01-26T22:15:49.249Z,34.73
2018-01-26T22:18:17.601Z,33.93
2018-01-26T22:20:45.945Z,35.90
2018-01-26T22:23:14.260Z,32.23
2018-01-26T22:25:43.019Z,32.87
2018-01-26T22:28:11.377Z,30.70
2018-01-26T22:30:39.702Z,30.60
2018-01-26T22:33:08.067Z,30.57
2018-01-26T22:35:36.376Z,29.17
2018-01-26T22:38:05.478Z,27.80
2018-01-26T22:40:34.776Z,28.50
2018-01-26T22:43:03.118Z,26.07
2018-01-26T22:45:31.441Z,25.30
2018-01-26T22:47:59.853Z,25.10
2018-01-26T22:50:28.201Z,25.10
2018-01-26T22:52:56.551Z,27.43
2018-01-26T22:55:26.144Z,25.17
2018-01-26T22:57:54.467Z,23.97
2018-01-26T23:00:22.816Z,23.17
2018-01-26T23:02:51.205Z,23.70
2018-01-26T23:05:19.544Z,21.97
2018-01-26T23:07:47.855Z,25.57
2018-01-26T23:10:16.296Z,26.17
2018-01-26T23:12:44.614Z,27.53
2018-01-26T23:15:12.972Z,27.87
2018-01-26T23:17:41.312Z,27.40
2018-01-26T23:20:10.453Z,27.40
2018-01-26T23:22:38.807Z,26.20
2018-01-26T23:25:07.172Z,26.33
2018-01-26T23:27:35.517Z,27.70
2018-01-26T23:30:03.842Z,28.03
2018-01-26T23:32:32.787Z,27.67
2018-01-26T23:35:01.184Z,29.10
2018-01-26T23:37:30.260Z,28.73
2018-01-26T23:39:58.608Z,29.37
2018-01-26T23:42:26.910Z,30.50
2018-01-26T23:44:55.257Z,26.37
2018-01-26T23:47:23.609Z,27.60
2018-01-26T23:49:51.952Z,28.50
2018-01-26T23:52:20.288Z,28.67
2018-01-26T23:54:49.137Z,27.30
2018-01-26T23:57:17.457Z,27.93
2018-01-26T23:59:45.832Z,29.73
